Schagen, Netherlands
Current Conditions -  °F | °C
As of 4:55 PM on Friday 24 Oct 2014 (Local Time) from EHKD Reporting Station
Drizzle Drizzle  
Wind Chill: 55°   Ceiling: 300
Heat Index: 55°   Visibility: 1.7mi
Dew Point: 55°   Wind: 15mph
Humidity: 100%   Direction: 190°S
Pressure: 29.97"   Gusts: NA
Location:  52.79°N, 4.8°E
Report Text: EHKD 241455Z AUTO 19013KT 2800 DZ OVC003 13/13 Q1015 YLO 19014KT 9000 BR SCT005 OVC007 TEMPO 3500 -DZRA SCT003 BKN005 OVC007
Loading
Personal Weather Stations






























Interactive Weather Map
Tropical Storm Tracking
New forecast layout! Learn more

10-Day Weather Forecast

Advertisements
Track Severe Weather on mobile